createdAt,value
2023-03-08T00:01:44.358Z,1.10
2023-03-08T00:04:13.773Z,1.00
2023-03-08T00:06:43.118Z,0.90
2023-03-08T00:09:12.079Z,0.90
2023-03-08T00:11:42.721Z,0.80
2023-03-08T00:14:11.468Z,0.80
2023-03-08T00:16:40.258Z,0.70
2023-03-08T00:19:09.047Z,0.60
2023-03-08T00:21:38.397Z,0.40
2023-03-08T00:24:08.066Z,0.50
2023-03-08T00:26:37.054Z,0.40
2023-03-08T00:29:08.318Z,0.40
2023-03-08T00:31:37.724Z,0.30
2023-03-08T00:34:06.567Z,0.50
2023-03-08T00:36:35.948Z,0.30
2023-03-08T00:39:04.885Z,0.40
2023-03-08T00:41:34.294Z,0.30
2023-03-08T00:44:03.751Z,0.40
2023-03-08T00:46:34.549Z,0.40
2023-03-08T00:49:05.223Z,0.40
2023-03-08T00:51:36.976Z,0.40
2023-03-08T00:54:06.396Z,0.40
2023-03-08T00:56:35.809Z,0.40
2023-03-08T00:59:04.905Z,0.40
2023-03-08T01:01:35.518Z,0.30
2023-03-08T01:04:04.702Z,0.30
2023-03-08T01:06:33.998Z,0.30
2023-03-08T01:09:03.760Z,0.30
2023-03-08T01:11:33.852Z,0.30
2023-03-08T01:14:02.991Z,0.40
2023-03-08T01:16:34.089Z,0.40
2023-03-08T01:19:05.105Z,0.40
2023-03-08T01:21:35.901Z,0.40
2023-03-08T01:24:05.976Z,0.40
2023-03-08T01:26:34.976Z,0.50
2023-03-08T01:29:03.681Z,0.50
2023-03-08T01:31:34.256Z,0.40
2023-03-08T01:34:05.240Z,0.40
2023-03-08T01:36:34.509Z,0.40
2023-03-08T01:39:04.600Z,0.50
2023-03-08T01:41:34.410Z,0.50
2023-03-08T01:44:03.838Z,0.50
2023-03-08T01:46:33.476Z,0.60
2023-03-08T01:49:17.440Z,0.70
2023-03-08T01:51:51.702Z,0.60
2023-03-08T01:54:25.031Z,0.60
2023-03-08T01:56:56.941Z,0.50
2023-03-08T01:59:26.463Z,0.50
2023-03-08T02:01:56.312Z,-0.10
2023-03-08T02:04:28.953Z,0.70
2023-03-08T02:06:58.555Z,0.30
2023-03-08T02:09:29.350Z,0.30
2023-03-08T02:12:04.038Z,0.30
2023-03-08T02:14:33.326Z,0.30
2023-03-08T02:17:02.556Z,0.40
2023-03-08T02:19:41.941Z,0.30
2023-03-08T02:22:12.832Z,0.30
2023-03-08T02:24:44.051Z,0.30
2023-03-08T02:27:18.725Z,-0.50
2023-03-08T02:29:47.870Z,0.30
2023-03-08T02:32:17.698Z,0.20
2023-03-08T02:34:46.782Z,0.10
2023-03-08T02:37:16.588Z,0.10
2023-03-08T05:03:27.559Z,-0.10
2023-03-08T05:05:58.124Z,-0.20
2023-03-08T05:08:27.941Z,-0.20
2023-03-08T05:11:00.906Z,-0.20
2023-03-08T05:13:36.985Z,-0.20
2023-03-08T05:16:08.984Z,-0.20
2023-03-08T05:18:39.478Z,-0.10
2023-03-08T05:21:12.776Z,-0.10
2023-03-08T05:23:42.692Z,-0.20
2023-03-08T05:26:15.196Z,-0.20
2023-03-08T05:28:45.030Z,-0.20
2023-03-08T05:31:16.405Z,0.00
2023-03-08T05:33:51.339Z,0.10
2023-03-08T05:36:27.920Z,0.10
2023-03-08T05:38:59.481Z,0.10
2023-03-08T05:41:37.729Z,0.00
2023-03-08T05:44:07.959Z,0.00
2023-03-08T05:46:39.407Z,0.00
2023-03-08T05:49:11.564Z,0.00
2023-03-08T05:51:40.701Z,0.00
2023-03-08T05:54:11.401Z,0.00
2023-03-08T05:56:42.073Z,0.00
2023-03-08T05:59:20.191Z,0.10
2023-03-08T06:01:50.472Z,0.30
2023-03-08T06:04:36.370Z,0.20
2023-03-08T06:07:05.598Z,0.30
2023-03-08T06:09:38.992Z,0.30
2023-03-08T06:12:10.630Z,0.30
2023-03-08T06:14:39.697Z,0.40
2023-03-08T06:17:09.548Z,0.40
2023-03-08T06:19:44.836Z,0.50
2023-03-08T06:22:14.371Z,0.50
2023-03-08T06:24:43.905Z,0.50
2023-03-08T06:27:12.982Z,0.50
2023-03-08T06:29:44.301Z,0.40
2023-03-08T06:32:13.595Z,0.70
2023-03-08T06:34:44.320Z,0.80
2023-03-08T06:37:13.694Z,0.90
2023-03-08T06:39:43.670Z,1.00
2023-03-08T06:42:12.870Z,1.00
2023-03-08T06:44:42.315Z,0.90
2023-03-08T06:47:11.810Z,0.80
2023-03-08T06:49:40.686Z,0.90
2023-03-08T06:52:11.736Z,0.90
2023-03-08T06:54:40.993Z,1.10
2023-03-08T06:57:10.176Z,1.10
2023-03-08T06:59:39.519Z,1.10
2023-03-08T07:02:08.922Z,1.20
2023-03-08T07:04:38.811Z,1.00
2023-03-08T07:07:08.304Z,1.00
2023-03-08T07:09:38.941Z,1.10
2023-03-08T07:12:11.287Z,1.20
2023-03-08T07:14:40.529Z,1.20
2023-03-08T07:17:09.936Z,1.40
2023-03-08T07:19:39.903Z,1.40
2023-03-08T07:22:08.956Z,1.80
2023-03-08T07:24:39.783Z,2.10
2023-03-08T07:27:08.607Z,2.30
2023-03-08T07:29:37.541Z,2.20
2023-03-08T07:32:08.918Z,2.20
2023-03-08T07:34:38.225Z,2.40
2023-03-08T07:37:08.001Z,2.40
2023-03-08T07:39:39.051Z,2.50
2023-03-08T07:42:08.287Z,2.20
2023-03-08T07:44:37.785Z,2.50
2023-03-08T07:47:10.313Z,2.70
2023-03-08T07:49:39.862Z,2.80
2023-03-08T07:52:09.095Z,2.90
2023-03-08T07:54:39.418Z,3.00
2023-03-08T07:57:08.450Z,2.70
2023-03-08T07:59:37.854Z,2.30
2023-03-08T08:02:07.234Z,2.40
2023-03-08T08:04:37.554Z,2.50
2023-03-08T08:07:06.665Z,2.70
2023-03-08T08:09:37.817Z,2.80
2023-03-08T08:12:09.865Z,3.00
2023-03-08T08:14:39.752Z,3.00
2023-03-08T08:17:08.962Z,3.10
2023-03-08T08:19:38.747Z,3.20
2023-03-08T08:22:08.171Z,3.20
2023-03-08T08:24:37.675Z,3.40
2023-03-08T08:27:08.663Z,3.40
2023-03-08T08:29:39.299Z,3.40
2023-03-08T08:32:09.211Z,3.30
2023-03-08T08:34:38.511Z,3.60
2023-03-08T08:37:08.035Z,3.80
2023-03-08T08:39:37.494Z,3.60
2023-03-08T08:42:08.642Z,3.10
2023-03-08T08:44:37.951Z,3.30
2023-03-08T08:47:07.244Z,3.30
2023-03-08T08:49:38.098Z,3.30
2023-03-08T08:52:07.697Z,3.40
2023-03-08T08:54:40.177Z,3.40
2023-03-08T08:57:11.446Z,3.50
2023-03-08T08:59:40.632Z,3.60
2023-03-08T09:02:11.807Z,2.80
2023-03-08T09:04:40.675Z,3.00
2023-03-08T09:07:10.073Z,3.20
2023-03-08T09:09:39.279Z,3.60
2023-03-08T09:12:10.662Z,3.90
2023-03-08T09:14:39.925Z,4.50
2023-03-08T09:17:09.056Z,5.30
2023-03-08T09:19:38.496Z,5.20
2023-03-08T09:22:07.601Z,6.20
2023-03-08T09:24:36.627Z,8.00
2023-03-08T09:27:07.782Z,9.00
2023-03-08T09:29:38.577Z,9.20
2023-03-08T09:32:08.674Z,9.10
2023-03-08T09:34:37.906Z,9.10
2023-03-08T09:37:08.522Z,9.20
2023-03-08T09:39:38.816Z,9.50
2023-03-08T09:42:08.489Z,10.90
2023-03-08T09:45:07.721Z,10.10
2023-03-08T09:47:46.847Z,10.70
2023-03-08T09:50:35.375Z,11.10
2023-03-08T09:53:12.801Z,11.90
2023-03-08T09:55:49.268Z,12.40
2023-03-08T09:58:26.686Z,13.80
2023-03-08T10:00:59.867Z,15.50
2023-03-08T10:03:44.575Z,13.30
2023-03-08T10:06:21.350Z,10.40
2023-03-08T10:08:58.942Z,10.30
2023-03-08T10:11:35.641Z,11.20
2023-03-08T10:14:14.252Z,11.40
2023-03-08T10:16:49.069Z,10.70
2023-03-08T10:19:23.167Z,10.70
2023-03-08T10:21:54.293Z,10.20
2023-03-08T10:24:27.776Z,9.40
2023-03-08T10:27:03.857Z,8.50
2023-03-08T10:29:34.344Z,7.20
2023-03-08T10:32:05.267Z,6.60
2023-03-08T10:34:36.244Z,6.70
2023-03-08T10:37:09.452Z,6.40
2023-03-08T10:39:40.287Z,5.90
2023-03-08T10:42:17.198Z,5.80
2023-03-08T10:44:54.342Z,5.00
2023-03-08T10:47:27.073Z,5.10
2023-03-08T10:50:17.504Z,5.30
2023-03-08T10:52:48.281Z,5.80
2023-03-08T10:55:19.910Z,6.40
2023-03-08T10:57:53.915Z,6.50
2023-03-08T11:00:37.007Z,6.10
2023-03-08T11:03:15.206Z,6.20
2023-03-08T11:05:55.097Z,6.20
2023-03-08T11:08:26.621Z,4.90
2023-03-08T11:11:08.165Z,5.40
2023-03-08T11:13:42.625Z,6.00
2023-03-08T11:16:45.711Z,5.00
2023-03-08T11:19:33.658Z,4.40
2023-03-08T11:22:18.441Z,4.40
2023-03-08T11:25:05.382Z,4.70
2023-03-08T11:27:48.349Z,4.20
2023-03-08T11:30:28.480Z,4.60
2023-03-08T11:33:17.953Z,4.60
2023-03-08T11:35:54.797Z,4.20
2023-03-08T11:38:27.386Z,4.30
2023-03-08T11:41:05.275Z,4.20
2023-03-08T11:43:48.042Z,4.10
2023-03-08T11:46:23.746Z,4.50
2023-03-08T11:49:06.351Z,4.00
2023-03-08T11:51:45.995Z,3.70
2023-03-08T11:54:20.892Z,3.50
2023-03-08T11:56:53.511Z,3.70
2023-03-08T11:59:28.459Z,4.00
2023-03-08T12:02:04.751Z,4.40
2023-03-08T12:04:40.983Z,4.60
2023-03-08T12:07:19.926Z,5.10
2023-03-08T12:09:57.703Z,6.10
2023-03-08T12:12:31.243Z,5.60
2023-03-08T12:15:07.453Z,5.40
2023-03-08T12:17:40.732Z,5.20
2023-03-08T12:20:15.745Z,5.40
2023-03-08T12:22:50.432Z,4.70
2023-03-08T12:25:29.240Z,4.50
2023-03-08T12:28:03.767Z,4.40
2023-03-08T12:30:46.176Z,4.70
2023-03-08T12:33:18.627Z,4.50
2023-03-08T12:35:56.827Z,4.30
2023-03-08T12:38:39.579Z,4.40
2023-03-08T12:41:24.306Z,4.50
2023-03-08T12:44:04.267Z,4.50
2023-03-08T12:47:01.832Z,4.50
2023-03-08T12:49:35.257Z,4.60
2023-03-08T12:52:06.577Z,4.40
2023-03-08T12:54:37.743Z,4.30
2023-03-08T12:57:22.037Z,4.40
2023-03-08T12:59:58.655Z,4.60
2023-03-08T13:02:32.266Z,4.50
2023-03-08T13:05:17.903Z,4.60
2023-03-08T13:08:02.423Z,4.50
2023-03-08T13:10:36.366Z,4.40
2023-03-08T13:13:37.596Z,4.70
2023-03-08T13:16:24.363Z,5.10
2023-03-08T13:19:04.612Z,5.60
2023-03-08T13:21:36.074Z,5.70
2023-03-08T13:24:13.200Z,5.90
2023-03-08T13:27:24.489Z,6.00
2023-03-08T13:29:56.248Z,5.90
2023-03-08T13:32:26.629Z,5.50
2023-03-08T13:35:01.702Z,5.10
2023-03-08T13:37:32.450Z,5.00
2023-03-08T13:40:02.997Z,5.00
2023-03-08T13:42:32.187Z,4.90
2023-03-08T13:45:18.778Z,4.90
2023-03-08T13:47:48.986Z,4.90
2023-03-08T13:50:22.608Z,4.80
2023-03-08T13:52:52.153Z,5.00
2023-03-08T13:55:24.879Z,4.90
2023-03-08T13:57:55.696Z,4.80
2023-03-08T14:00:32.861Z,5.00
2023-03-08T14:03:04.247Z,4.90
2023-03-08T14:05:36.154Z,4.90
2023-03-08T14:08:08.120Z,4.80
2023-03-08T14:10:41.075Z,4.90
2023-03-08T14:13:19.485Z,4.90
2023-03-08T14:15:54.494Z,5.00
2023-03-08T14:18:25.515Z,5.00
2023-03-08T14:21:16.468Z,4.90
2023-03-08T14:23:50.368Z,4.70
2023-03-08T14:26:28.183Z,4.80
2023-03-08T14:29:21.948Z,5.00
2023-03-08T14:31:59.613Z,5.10
2023-03-08T14:34:34.592Z,5.10
2023-03-08T14:37:18.187Z,4.90
2023-03-08T14:39:49.374Z,5.00
2023-03-08T14:42:23.391Z,4.90
2023-03-08T14:44:55.103Z,4.80
2023-03-08T14:47:28.483Z,4.80
2023-03-08T14:50:01.455Z,4.90
2023-03-08T14:52:32.416Z,5.00
2023-03-08T14:55:03.555Z,5.00
2023-03-08T14:57:33.452Z,5.00
2023-03-08T15:00:14.946Z,5.00
2023-03-08T15:02:46.088Z,4.70
2023-03-08T15:05:28.029Z,4.70
2023-03-08T15:10:54.372Z,4.40
2023-03-08T15:13:25.659Z,4.40
2023-03-08T15:15:54.886Z,4.10
2023-03-08T15:18:26.206Z,4.10
2023-03-08T15:20:55.524Z,4.10
2023-03-08T15:23:28.260Z,4.10
2023-03-08T15:25:58.338Z,4.00
2023-03-08T15:28:27.539Z,3.90
2023-03-08T15:30:56.676Z,3.90
2023-03-08T15:33:27.327Z,3.90
2023-03-08T15:35:56.708Z,3.80
2023-03-08T15:38:25.640Z,3.80
2023-03-08T15:40:54.566Z,3.70
2023-03-08T15:43:23.822Z,3.60
2023-03-08T15:45:53.255Z,3.60
2023-03-08T15:48:22.527Z,3.50
2023-03-08T15:50:53.732Z,3.50
2023-03-08T15:53:34.544Z,3.50
2023-03-08T15:56:04.245Z,3.50
2023-03-08T15:58:34.131Z,3.40
2023-03-08T16:01:03.415Z,3.40
2023-03-08T16:03:33.081Z,3.40
2023-03-08T16:06:05.097Z,3.40
2023-03-08T16:08:36.952Z,3.30
2023-03-08T16:11:09.112Z,3.30
2023-03-08T16:13:38.147Z,3.20
2023-03-08T16:16:08.970Z,3.80
2023-03-08T16:18:40.839Z,3.20
2023-03-08T16:21:12.520Z,3.10
2023-03-08T16:23:42.529Z,3.10
2023-03-08T16:26:16.189Z,3.10
2023-03-08T16:28:47.082Z,3.10
2023-03-08T16:31:17.109Z,3.10
2023-03-08T16:33:46.581Z,3.10
2023-03-08T16:36:18.054Z,3.10
2023-03-08T16:38:47.255Z,3.10
2023-03-08T16:41:16.766Z,3.10
2023-03-08T16:43:48.166Z,3.10
2023-03-08T16:46:19.354Z,3.00
2023-03-08T16:48:50.171Z,3.10
2023-03-08T16:51:23.178Z,3.10
2023-03-08T16:53:53.034Z,3.00
2023-03-08T16:56:22.799Z,3.10
2023-03-08T16:58:52.360Z,3.10
2023-03-08T17:01:22.374Z,3.10
2023-03-08T17:03:52.220Z,3.10
2023-03-08T17:06:24.218Z,3.10
2023-03-08T17:08:53.902Z,3.10
2023-03-08T17:11:25.030Z,3.10
2023-03-08T17:13:56.574Z,3.00
2023-03-08T17:16:27.805Z,3.00
2023-03-08T17:19:00.280Z,3.00
2023-03-08T17:21:31.832Z,3.00
2023-03-08T17:24:01.620Z,3.00
2023-03-08T17:26:30.414Z,3.00
2023-03-08T17:28:59.610Z,3.00
2023-03-08T17:31:30.006Z,2.90
2023-03-08T17:33:59.302Z,2.90
2023-03-08T17:36:31.065Z,2.90
2023-03-08T17:39:00.607Z,3.00
2023-03-08T17:41:30.098Z,3.00
2023-03-08T17:43:58.984Z,3.00
2023-03-08T17:46:29.258Z,2.90
2023-03-08T17:48:58.921Z,2.90
2023-03-08T17:51:30.889Z,2.90
2023-03-08T17:54:01.524Z,2.90
2023-03-08T17:56:32.701Z,2.90
2023-03-08T17:59:03.501Z,2.90
2023-03-08T18:01:33.466Z,2.80
2023-03-08T18:04:02.723Z,2.90
2023-03-08T18:06:35.916Z,2.90
2023-03-08T18:09:07.499Z,2.80
2023-03-08T18:11:38.271Z,2.80
2023-03-08T18:14:09.653Z,2.80
2023-03-08T18:16:39.511Z,2.80
2023-03-08T18:19:09.104Z,2.80
2023-03-08T18:21:41.318Z,2.80
2023-03-08T18:24:13.030Z,2.80
2023-03-08T18:26:42.749Z,2.80
2023-03-08T18:29:12.775Z,2.80
2023-03-08T18:31:42.501Z,2.80
2023-03-08T18:34:11.986Z,2.80
2023-03-08T18:36:42.654Z,2.80
2023-03-08T18:39:15.380Z,2.80
2023-03-08T18:41:44.576Z,2.70
2023-03-08T18:44:14.487Z,2.80
2023-03-08T18:46:43.667Z,2.80
2023-03-08T18:49:17.395Z,2.80
2023-03-08T18:51:50.118Z,2.80
2023-03-08T18:54:22.867Z,2.80
2023-03-08T18:56:54.242Z,2.80
2023-03-08T18:59:24.541Z,2.80
2023-03-08T19:01:54.775Z,2.80
2023-03-08T19:04:24.223Z,2.70
2023-03-08T19:06:55.340Z,2.80
2023-03-08T19:09:25.404Z,2.70
2023-03-08T19:11:55.492Z,2.70
2023-03-08T19:14:24.802Z,2.70
2023-03-08T19:16:54.239Z,2.70
2023-03-08T19:19:24.182Z,2.70
2023-03-08T19:21:55.084Z,2.70
2023-03-08T19:24:24.794Z,2.80
2023-03-08T19:26:53.842Z,2.70
2023-03-08T19:29:24.867Z,2.70
2023-03-08T19:31:55.634Z,2.80
2023-03-08T19:34:28.684Z,2.80
2023-03-08T19:37:00.798Z,3.00
2023-03-08T19:39:31.637Z,2.90
2023-03-08T19:42:03.566Z,2.80
2023-03-08T19:44:34.062Z,2.90
2023-03-08T19:47:05.370Z,2.90
2023-03-08T19:49:37.782Z,2.90
2023-03-08T19:52:09.252Z,2.90
2023-03-08T19:54:40.213Z,2.90
2023-03-08T19:57:12.275Z,2.90
2023-03-08T19:59:42.331Z,2.80
2023-03-08T20:02:14.453Z,2.70
2023-03-08T20:04:46.217Z,2.70
2023-03-08T20:07:16.976Z,2.80
2023-03-08T20:09:46.317Z,2.70
2023-03-08T20:12:15.641Z,2.70
2023-03-08T20:14:45.006Z,2.70
2023-03-08T20:17:14.543Z,2.70
2023-03-08T20:19:44.572Z,2.70
2023-03-08T20:22:14.128Z,2.60
2023-03-08T20:24:45.317Z,2.70
2023-03-08T20:27:16.288Z,2.70
2023-03-08T20:29:45.669Z,2.80
2023-03-08T20:32:16.105Z,2.80
2023-03-08T20:34:45.889Z,2.70
2023-03-08T20:37:15.690Z,2.70
2023-03-08T20:39:47.001Z,2.70
2023-03-08T20:42:16.891Z,2.60
2023-03-08T20:44:46.438Z,2.70
2023-03-08T20:47:16.643Z,2.60
2023-03-08T20:49:47.053Z,2.70
2023-03-08T20:52:17.369Z,2.70
2023-03-08T20:54:49.620Z,2.70
2023-03-08T20:57:18.871Z,2.70
2023-03-08T20:59:48.536Z,2.60
2023-03-08T21:02:18.049Z,2.60
2023-03-08T21:04:47.200Z,2.60
2023-03-08T21:07:16.800Z,2.60
2023-03-08T21:09:47.615Z,2.60
2023-03-08T21:12:17.272Z,2.60
2023-03-08T21:14:46.320Z,2.60
2023-03-08T21:17:16.452Z,2.60
2023-03-08T21:19:45.878Z,2.60
2023-03-08T21:22:15.399Z,2.60
2023-03-08T21:24:44.745Z,2.60
2023-03-08T21:27:17.230Z,2.60
2023-03-08T21:29:47.028Z,2.60
2023-03-08T21:32:16.812Z,2.50
2023-03-08T21:34:47.116Z,2.60
2023-03-08T21:37:16.977Z,2.50
2023-03-08T21:39:46.498Z,2.50
2023-03-08T21:42:17.055Z,2.50
2023-03-08T21:44:46.574Z,2.50
2023-03-08T21:47:18.224Z,2.50
2023-03-08T21:49:47.922Z,2.50
2023-03-08T21:52:17.412Z,2.50
2023-03-08T21:54:47.846Z,2.50
2023-03-08T21:57:19.257Z,2.50
2023-03-08T21:59:48.866Z,2.40
2023-03-08T22:02:18.234Z,2.50
2023-03-08T22:04:48.047Z,2.50
2023-03-08T22:07:16.804Z,2.40
2023-03-08T22:09:46.295Z,2.50
2023-03-08T22:12:15.362Z,2.50
2023-03-08T22:14:45.959Z,2.50
2023-03-08T22:17:15.501Z,2.50
2023-03-08T22:19:44.746Z,2.50
2023-03-08T22:22:14.896Z,2.50
2023-03-08T22:24:43.935Z,2.50
2023-03-08T22:27:14.254Z,2.50
2023-03-08T22:29:45.092Z,2.50
2023-03-08T22:32:14.780Z,2.50
2023-03-08T22:34:44.169Z,2.60
2023-03-08T22:37:13.688Z,2.60
2023-03-08T22:39:43.640Z,2.60
2023-03-08T22:42:13.491Z,2.50
2023-03-08T22:44:45.034Z,2.50
2023-03-08T22:47:14.617Z,2.50
2023-03-08T22:49:43.988Z,2.50
2023-03-08T22:52:13.113Z,2.50
2023-03-08T22:54:42.726Z,2.50
2023-03-08T22:57:15.046Z,2.40
2023-03-08T22:59:47.745Z,2.40
2023-03-08T23:02:17.061Z,2.40
2023-03-08T23:04:46.363Z,2.40
2023-03-08T23:07:15.488Z,2.40
2023-03-08T23:09:44.250Z,2.50
2023-03-08T23:12:13.682Z,2.40
2023-03-08T23:14:45.200Z,2.40
2023-03-08T23:17:16.155Z,2.40
2023-03-08T23:19:45.692Z,2.40
2023-03-08T23:22:15.024Z,2.40
2023-03-08T23:24:44.289Z,2.30
2023-03-08T23:27:13.363Z,2.30
2023-03-08T23:29:43.288Z,2.30
2023-03-08T23:32:13.901Z,2.30
2023-03-08T23:34:45.900Z,2.30
2023-03-08T23:37:15.127Z,2.40
2023-03-08T23:39:44.174Z,2.40
2023-03-08T23:42:13.389Z,2.40
2023-03-08T23:44:43.020Z,2.40
2023-03-08T23:47:12.199Z,2.40
2023-03-08T23:49:41.335Z,2.40
2023-03-08T23:52:12.569Z,2.40
2023-03-08T23:54:42.605Z,2.40
2023-03-08T23:57:11.809Z,2.40
2023-03-08T23:59:41.336Z,2.50
